sensor_id;sensor_type;location;lat;lon;timestamp;temperature;humidity
26873;DHT22;14445;53.056;4.804;2022-08-03T00:01:04;20.60;99.90
26873;DHT22;14445;53.056;4.804;2022-08-03T00:03:31;20.60;99.90
26873;DHT22;14445;53.056;4.804;2022-08-03T00:05:57;20.60;99.90
26873;DHT22;14445;53.056;4.804;2022-08-03T00:08:23;20.60;99.90
26873;DHT22;14445;53.056;4.804;2022-08-03T00:10:48;20.60;99.90
26873;DHT22;14445;53.056;4.804;2022-08-03T00:13:14;20.60;99.90
26873;DHT22;14445;53.056;4.804;2022-08-03T00:15:41;20.60;99.90
26873;DHT22;14445;53.056;4.804;2022-08-03T00:18:07;20.60;99.90
26873;DHT22;14445;53.056;4.804;2022-08-03T00:20:33;20.60;99.90
26873;DHT22;14445;53.056;4.804;2022-08-03T00:22:58;20.60;99.90
26873;DHT22;14445;53.056;4.804;2022-08-03T00:25:24;20.60;99.90
26873;DHT22;14445;53.056;4.804;2022-08-03T00:27:50;20.60;99.90
26873;DHT22;14445;53.056;4.804;2022-08-03T00:30:15;20.60;99.90
26873;DHT22;14445;53.056;4.804;2022-08-03T00:32:40;20.60;99.90
26873;DHT22;14445;53.056;4.804;2022-08-03T00:35:06;20.60;99.90
26873;DHT22;14445;53.056;4.804;2022-08-03T00:37:32;20.60;99.90
26873;DHT22;14445;53.056;4.804;2022-08-03T00:39:58;20.60;99.90
26873;DHT22;14445;53.056;4.804;2022-08-03T00:42:23;20.70;99.90
26873;DHT22;14445;53.056;4.804;2022-08-03T00:44:49;20.60;99.90
26873;DHT22;14445;53.056;4.804;2022-08-03T00:47:14;20.60;99.90
26873;DHT22;14445;53.056;4.804;2022-08-03T00:49:40;20.60;99.90
26873;DHT22;14445;53.056;4.804;2022-08-03T00:52:07;20.60;99.90
26873;DHT22;14445;53.056;4.804;2022-08-03T00:54:34;20.60;99.90
26873;DHT22;14445;53.056;4.804;2022-08-03T00:57:00;20.60;99.90
26873;DHT22;14445;53.056;4.804;2022-08-03T00:59:26;20.60;99.90
26873;DHT22;14445;53.056;4.804;2022-08-03T01:01:52;20.60;99.90
26873;DHT22;14445;53.056;4.804;2022-08-03T01:04:18;20.60;99.90
26873;DHT22;14445;53.056;4.804;2022-08-03T01:07:08;20.60;99.90
26873;DHT22;14445;53.056;4.804;2022-08-03T01:09:43;20.60;99.90
26873;DHT22;14445;53.056;4.804;2022-08-03T01:15:12;20.60;99.90
26873;DHT22;14445;53.056;4.804;2022-08-03T01:18:02;20.60;99.90
26873;DHT22;14445;53.056;4.804;2022-08-03T01:20:33;20.60;99.90
26873;DHT22;14445;53.056;4.804;2022-08-03T01:23:09;20.60;99.90
26873;DHT22;14445;53.056;4.804;2022-08-03T01:28:56;20.60;99.90
26873;DHT22;14445;53.056;4.804;2022-08-03T01:31:33;20.60;99.90
26873;DHT22;14445;53.056;4.804;2022-08-03T01:34:02;20.60;99.90
26873;DHT22;14445;53.056;4.804;2022-08-03T01:36:36;20.60;99.90
26873;DHT22;14445;53.056;4.804;2022-08-03T01:39:04;20.50;99.90
26873;DHT22;14445;53.056;4.804;2022-08-03T01:41:38;20.60;99.90
26873;DHT22;14445;53.056;4.804;2022-08-03T01:44:07;20.60;99.90
26873;DHT22;14445;53.056;4.804;2022-08-03T01:46:33;20.50;99.90
26873;DHT22;14445;53.056;4.804;2022-08-03T01:49:00;20.50;99.90
26873;DHT22;14445;53.056;4.804;2022-08-03T01:51:28;20.50;99.90
26873;DHT22;14445;53.056;4.804;2022-08-03T01:53:56;20.50;99.90
26873;DHT22;14445;53.056;4.804;2022-08-03T01:56:23;20.50;99.90
26873;DHT22;14445;53.056;4.804;2022-08-03T01:58:51;20.50;99.90
26873;DHT22;14445;53.056;4.804;2022-08-03T02:01:20;20.50;99.90
26873;DHT22;14445;53.056;4.804;2022-08-03T02:03:48;20.50;99.90
26873;DHT22;14445;53.056;4.804;2022-08-03T02:06:14;20.50;99.90
26873;DHT22;14445;53.056;4.804;2022-08-03T02:08:42;20.50;99.90
26873;DHT22;14445;53.056;4.804;2022-08-03T02:11:09;20.50;99.90
26873;DHT22;14445;53.056;4.804;2022-08-03T02:13:35;20.50;99.90
26873;DHT22;14445;53.056;4.804;2022-08-03T02:16:04;20.50;99.90
26873;DHT22;14445;53.056;4.804;2022-08-03T02:18:31;20.50;99.90
26873;DHT22;14445;53.056;4.804;2022-08-03T02:21:00;20.40;99.90
26873;DHT22;14445;53.056;4.804;2022-08-03T02:23:25;20.40;99.90
26873;DHT22;14445;53.056;4.804;2022-08-03T02:25:55;20.40;99.90
26873;DHT22;14445;53.056;4.804;2022-08-03T02:28:27;20.40;99.90
26873;DHT22;14445;53.056;4.804;2022-08-03T02:30:54;20.40;99.90
26873;DHT22;14445;53.056;4.804;2022-08-03T02:33:27;20.40;99.90
26873;DHT22;14445;53.056;4.804;2022-08-03T02:35:56;20.40;99.90
26873;DHT22;14445;53.056;4.804;2022-08-03T02:38:28;20.30;99.90
26873;DHT22;14445;53.056;4.804;2022-08-03T02:40:57;20.40;99.90
26873;DHT22;14445;53.056;4.804;2022-08-03T02:43:23;20.40;99.90
26873;DHT22;14445;53.056;4.804;2022-08-03T02:45:50;20.40;99.90
26873;DHT22;14445;53.056;4.804;2022-08-03T02:48:20;20.40;99.90
26873;DHT22;14445;53.056;4.804;2022-08-03T02:50:49;20.40;99.90
26873;DHT22;14445;53.056;4.804;2022-08-03T02:53:16;20.40;99.90
26873;DHT22;14445;53.056;4.804;2022-08-03T02:55:43;20.40;99.90
26873;DHT22;14445;53.056;4.804;2022-08-03T02:58:12;20.40;99.90
26873;DHT22;14445;53.056;4.804;2022-08-03T03:00:38;20.40;99.90
26873;DHT22;14445;53.056;4.804;2022-08-03T03:03:04;20.40;99.90
26873;DHT22;14445;53.056;4.804;2022-08-03T03:05:31;20.40;99.90
26873;DHT22;14445;53.056;4.804;2022-08-03T03:07:58;20.40;99.90
26873;DHT22;14445;53.056;4.804;2022-08-03T03:10:24;20.40;99.90
26873;DHT22;14445;53.056;4.804;2022-08-03T03:12:54;20.30;99.90
26873;DHT22;14445;53.056;4.804;2022-08-03T03:15:21;20.30;99.90
26873;DHT22;14445;53.056;4.804;2022-08-03T03:17:48;20.30;99.90
26873;DHT22;14445;53.056;4.804;2022-08-03T03:20:14;20.30;99.90
26873;DHT22;14445;53.056;4.804;2022-08-03T03:22:41;20.30;99.90
26873;DHT22;14445;53.056;4.804;2022-08-03T03:25:07;20.30;99.90
26873;DHT22;14445;53.056;4.804;2022-08-03T03:27:33;20.30;99.90
26873;DHT22;14445;53.056;4.804;2022-08-03T03:29:59;20.30;99.90
26873;DHT22;14445;53.056;4.804;2022-08-03T03:32:26;20.30;99.90
26873;DHT22;14445;53.056;4.804;2022-08-03T03:34:53;20.30;99.90
26873;DHT22;14445;53.056;4.804;2022-08-03T03:37:20;20.30;99.90
26873;DHT22;14445;53.056;4.804;2022-08-03T03:39:45;20.30;99.90
26873;DHT22;14445;53.056;4.804;2022-08-03T03:42:11;20.30;99.90
26873;DHT22;14445;53.056;4.804;2022-08-03T03:44:37;20.30;99.90
26873;DHT22;14445;53.056;4.804;2022-08-03T03:47:02;20.30;99.90
26873;DHT22;14445;53.056;4.804;2022-08-03T03:49:29;20.30;99.90
26873;DHT22;14445;53.056;4.804;2022-08-03T03:51:55;20.30;99.90
26873;DHT22;14445;53.056;4.804;2022-08-03T03:54:21;20.30;99.90
26873;DHT22;14445;53.056;4.804;2022-08-03T03:56:47;20.30;99.90
26873;DHT22;14445;53.056;4.804;2022-08-03T03:59:12;20.30;99.90
26873;DHT22;14445;53.056;4.804;2022-08-03T04:01:38;20.30;99.90
26873;DHT22;14445;53.056;4.804;2022-08-03T04:04:04;20.30;99.90
26873;DHT22;14445;53.056;4.804;2022-08-03T04:06:48;20.30;99.90
26873;DHT22;14445;53.056;4.804;2022-08-03T04:09:38;20.30;99.90
26873;DHT22;14445;53.056;4.804;2022-08-03T04:12:25;20.30;99.90
26873;DHT22;14445;53.056;4.804;2022-08-03T04:14:55;20.40;99.90
26873;DHT22;14445;53.056;4.804;2022-08-03T04:17:23;20.40;99.90
26873;DHT22;14445;53.056;4.804;2022-08-03T04:19:52;20.40;99.90
26873;DHT22;14445;53.056;4.804;2022-08-03T04:22:21;20.40;99.90
26873;DHT22;14445;53.056;4.804;2022-08-03T04:24:57;20.40;99.90
26873;DHT22;14445;53.056;4.804;2022-08-03T04:27:26;20.50;99.90
26873;DHT22;14445;53.056;4.804;2022-08-03T04:29:54;20.50;99.90
26873;DHT22;14445;53.056;4.804;2022-08-03T04:32:22;20.50;99.90
26873;DHT22;14445;53.056;4.804;2022-08-03T04:34:51;20.50;99.90
26873;DHT22;14445;53.056;4.804;2022-08-03T04:39:52;20.60;99.90
26873;DHT22;14445;53.056;4.804;2022-08-03T04:42:21;20.60;99.90
26873;DHT22;14445;53.056;4.804;2022-08-03T04:44:47;20.70;99.90
26873;DHT22;14445;53.056;4.804;2022-08-03T04:47:13;20.70;99.90
26873;DHT22;14445;53.056;4.804;2022-08-03T04:49:39;20.80;99.90
26873;DHT22;14445;53.056;4.804;2022-08-03T04:52:06;20.90;99.90
26873;DHT22;14445;53.056;4.804;2022-08-03T04:54:40;20.90;99.90
26873;DHT22;14445;53.056;4.804;2022-08-03T04:57:06;21.00;99.90
26873;DHT22;14445;53.056;4.804;2022-08-03T04:59:31;21.00;99.90
26873;DHT22;14445;53.056;4.804;2022-08-03T05:01:57;21.10;99.90
26873;DHT22;14445;53.056;4.804;2022-08-03T05:04:22;21.10;99.90
26873;DHT22;14445;53.056;4.804;2022-08-03T05:06:48;21.20;99.90
26873;DHT22;14445;53.056;4.804;2022-08-03T05:09:13;21.20;99.90
26873;DHT22;14445;53.056;4.804;2022-08-03T05:11:39;21.30;99.90
26873;DHT22;14445;53.056;4.804;2022-08-03T05:14:04;21.40;99.90
26873;DHT22;14445;53.056;4.804;2022-08-03T05:16:30;21.40;99.90
26873;DHT22;14445;53.056;4.804;2022-08-03T05:18:55;21.50;99.90
26873;DHT22;14445;53.056;4.804;2022-08-03T05:21:21;21.50;99.90
26873;DHT22;14445;53.056;4.804;2022-08-03T05:23:46;21.60;99.90
26873;DHT22;14445;53.056;4.804;2022-08-03T05:26:12;21.60;99.90
26873;DHT22;14445;53.056;4.804;2022-08-03T05:28:38;21.80;99.90
26873;DHT22;14445;53.056;4.804;2022-08-03T05:31:04;21.80;99.90
26873;DHT22;14445;53.056;4.804;2022-08-03T05:33:29;21.90;99.90
26873;DHT22;14445;53.056;4.804;2022-08-03T05:35:55;22.00;99.90
26873;DHT22;14445;53.056;4.804;2022-08-03T05:38:20;22.10;99.90
26873;DHT22;14445;53.056;4.804;2022-08-03T05:40:46;22.10;99.90
26873;DHT22;14445;53.056;4.804;2022-08-03T05:43:11;22.10;99.90
26873;DHT22;14445;53.056;4.804;2022-08-03T05:45:37;22.10;99.90
26873;DHT22;14445;53.056;4.804;2022-08-03T05:48:04;22.20;99.90
26873;DHT22;14445;53.056;4.804;2022-08-03T05:50:29;22.10;99.90
26873;DHT22;14445;53.056;4.804;2022-08-03T05:52:55;22.20;99.90
26873;DHT22;14445;53.056;4.804;2022-08-03T05:55:24;22.30;99.90
26873;DHT22;14445;53.056;4.804;2022-08-03T05:57:49;22.30;99.90
26873;DHT22;14445;53.056;4.804;2022-08-03T06:00:15;22.40;99.90
26873;DHT22;14445;53.056;4.804;2022-08-03T06:02:41;22.50;99.90
26873;DHT22;14445;53.056;4.804;2022-08-03T06:05:07;22.60;99.90
26873;DHT22;14445;53.056;4.804;2022-08-03T06:07:33;22.60;99.90
26873;DHT22;14445;53.056;4.804;2022-08-03T06:09:59;22.70;99.90
26873;DHT22;14445;53.056;4.804;2022-08-03T06:12:26;22.70;99.90
26873;DHT22;14445;53.056;4.804;2022-08-03T06:14:52;22.80;99.90
26873;DHT22;14445;53.056;4.804;2022-08-03T06:17:17;22.80;99.90
26873;DHT22;14445;53.056;4.804;2022-08-03T06:19:43;22.80;99.90
26873;DHT22;14445;53.056;4.804;2022-08-03T06:22:08;22.90;99.90
26873;DHT22;14445;53.056;4.804;2022-08-03T06:24:34;23.00;99.90
26873;DHT22;14445;53.056;4.804;2022-08-03T06:26:59;23.00;99.90
26873;DHT22;14445;53.056;4.804;2022-08-03T06:29:25;23.20;99.90
26873;DHT22;14445;53.056;4.804;2022-08-03T06:31:50;23.20;99.90
26873;DHT22;14445;53.056;4.804;2022-08-03T06:34:16;23.30;99.90
26873;DHT22;14445;53.056;4.804;2022-08-03T06:36:42;23.40;99.90
26873;DHT22;14445;53.056;4.804;2022-08-03T06:39:07;23.40;99.90
26873;DHT22;14445;53.056;4.804;2022-08-03T06:41:33;23.40;99.90
26873;DHT22;14445;53.056;4.804;2022-08-03T06:43:59;23.30;99.90
26873;DHT22;14445;53.056;4.804;2022-08-03T06:46:24;23.30;99.90
26873;DHT22;14445;53.056;4.804;2022-08-03T06:48:50;23.40;99.90
26873;DHT22;14445;53.056;4.804;2022-08-03T06:51:15;23.40;99.90
26873;DHT22;14445;53.056;4.804;2022-08-03T06:53:41;23.50;99.90
26873;DHT22;14445;53.056;4.804;2022-08-03T06:56:07;23.50;99.90
26873;DHT22;14445;53.056;4.804;2022-08-03T06:58:33;23.40;99.90
26873;DHT22;14445;53.056;4.804;2022-08-03T07:00:58;23.40;99.90
26873;DHT22;14445;53.056;4.804;2022-08-03T07:03:24;23.50;99.90
26873;DHT22;14445;53.056;4.804;2022-08-03T07:05:50;23.50;99.90
26873;DHT22;14445;53.056;4.804;2022-08-03T07:08:16;23.60;99.90
26873;DHT22;14445;53.056;4.804;2022-08-03T07:10:43;23.60;99.90
26873;DHT22;14445;53.056;4.804;2022-08-03T07:13:09;23.60;99.90
26873;DHT22;14445;53.056;4.804;2022-08-03T07:15:35;23.60;99.90
26873;DHT22;14445;53.056;4.804;2022-08-03T07:18:00;23.60;99.90
26873;DHT22;14445;53.056;4.804;2022-08-03T07:20:26;23.70;99.90
26873;DHT22;14445;53.056;4.804;2022-08-03T07:22:51;23.80;99.90
26873;DHT22;14445;53.056;4.804;2022-08-03T07:25:17;23.90;99.90
26873;DHT22;14445;53.056;4.804;2022-08-03T07:27:44;23.90;99.90
26873;DHT22;14445;53.056;4.804;2022-08-03T07:30:10;23.80;99.90
26873;DHT22;14445;53.056;4.804;2022-08-03T07:32:36;23.80;99.90
26873;DHT22;14445;53.056;4.804;2022-08-03T07:35:02;23.80;99.90
26873;DHT22;14445;53.056;4.804;2022-08-03T07:37:29;23.80;99.90
26873;DHT22;14445;53.056;4.804;2022-08-03T07:39:54;23.90;99.90
26873;DHT22;14445;53.056;4.804;2022-08-03T07:42:20;24.00;99.90
26873;DHT22;14445;53.056;4.804;2022-08-03T07:44:46;24.10;99.90
26873;DHT22;14445;53.056;4.804;2022-08-03T07:47:12;24.10;99.90
26873;DHT22;14445;53.056;4.804;2022-08-03T07:49:42;24.30;99.90
26873;DHT22;14445;53.056;4.804;2022-08-03T07:52:07;24.40;99.90
26873;DHT22;14445;53.056;4.804;2022-08-03T07:54:51;24.50;99.90
26873;DHT22;14445;53.056;4.804;2022-08-03T07:57:17;24.50;99.90
26873;DHT22;14445;53.056;4.804;2022-08-03T07:59:44;24.60;99.90
26873;DHT22;14445;53.056;4.804;2022-08-03T08:02:10;24.70;99.90
26873;DHT22;14445;53.056;4.804;2022-08-03T08:04:35;24.70;99.90
26873;DHT22;14445;53.056;4.804;2022-08-03T08:07:01;24.80;99.90
26873;DHT22;14445;53.056;4.804;2022-08-03T08:09:26;24.80;99.90
26873;DHT22;14445;53.056;4.804;2022-08-03T08:11:52;24.80;99.90
26873;DHT22;14445;53.056;4.804;2022-08-03T08:14:17;24.90;99.90
26873;DHT22;14445;53.056;4.804;2022-08-03T08:16:43;25.00;99.90
26873;DHT22;14445;53.056;4.804;2022-08-03T08:19:08;24.90;99.90
26873;DHT22;14445;53.056;4.804;2022-08-03T08:21:34;24.90;99.90
26873;DHT22;14445;53.056;4.804;2022-08-03T08:23:59;24.90;99.90
26873;DHT22;14445;53.056;4.804;2022-08-03T08:26:25;24.80;99.90
26873;DHT22;14445;53.056;4.804;2022-08-03T08:28:50;24.80;99.90
26873;DHT22;14445;53.056;4.804;2022-08-03T08:31:17;24.80;99.90
26873;DHT22;14445;53.056;4.804;2022-08-03T08:33:42;24.80;99.90
26873;DHT22;14445;53.056;4.804;2022-08-03T08:36:08;24.70;99.90
26873;DHT22;14445;53.056;4.804;2022-08-03T08:38:34;24.80;99.90
26873;DHT22;14445;53.056;4.804;2022-08-03T08:40:59;24.90;99.90
26873;DHT22;14445;53.056;4.804;2022-08-03T08:43:25;25.00;99.90
26873;DHT22;14445;53.056;4.804;2022-08-03T08:45:53;25.00;99.90
26873;DHT22;14445;53.056;4.804;2022-08-03T08:48:23;25.00;99.90
26873;DHT22;14445;53.056;4.804;2022-08-03T08:50:52;25.00;99.90
26873;DHT22;14445;53.056;4.804;2022-08-03T08:53:19;25.10;99.90
26873;DHT22;14445;53.056;4.804;2022-08-03T08:55:46;25.20;99.90
26873;DHT22;14445;53.056;4.804;2022-08-03T08:58:12;25.10;99.90
26873;DHT22;14445;53.056;4.804;2022-08-03T09:00:40;25.00;99.90
26873;DHT22;14445;53.056;4.804;2022-08-03T09:03:08;25.00;99.90
26873;DHT22;14445;53.056;4.804;2022-08-03T09:05:34;25.00;99.90
26873;DHT22;14445;53.056;4.804;2022-08-03T09:08:00;25.10;99.90
26873;DHT22;14445;53.056;4.804;2022-08-03T09:10:25;25.10;99.90
26873;DHT22;14445;53.056;4.804;2022-08-03T09:12:51;25.10;99.90
26873;DHT22;14445;53.056;4.804;2022-08-03T09:17:43;25.30;99.90
26873;DHT22;14445;53.056;4.804;2022-08-03T09:20:08;25.20;99.90
26873;DHT22;14445;53.056;4.804;2022-08-03T09:22:34;25.20;99.90
26873;DHT22;14445;53.056;4.804;2022-08-03T09:25:04;25.10;99.90
26873;DHT22;14445;53.056;4.804;2022-08-03T09:27:41;25.10;99.90
26873;DHT22;14445;53.056;4.804;2022-08-03T09:30:13;25.20;99.90
26873;DHT22;14445;53.056;4.804;2022-08-03T09:32:39;25.30;99.90
26873;DHT22;14445;53.056;4.804;2022-08-03T09:35:05;25.40;99.90
26873;DHT22;14445;53.056;4.804;2022-08-03T09:37:30;25.40;99.90
26873;DHT22;14445;53.056;4.804;2022-08-03T09:39:56;25.30;99.90
26873;DHT22;14445;53.056;4.804;2022-08-03T09:42:21;25.30;99.90
26873;DHT22;14445;53.056;4.804;2022-08-03T09:44:49;25.30;99.90
26873;DHT22;14445;53.056;4.804;2022-08-03T09:47:35;25.60;99.90
26873;DHT22;14445;53.056;4.804;2022-08-03T09:50:04;25.70;99.90
26873;DHT22;14445;53.056;4.804;2022-08-03T09:52:32;25.90;99.90
26873;DHT22;14445;53.056;4.804;2022-08-03T09:54:58;25.80;99.90
26873;DHT22;14445;53.056;4.804;2022-08-03T09:57:26;25.80;99.90
26873;DHT22;14445;53.056;4.804;2022-08-03T09:59:53;25.90;99.90
26873;DHT22;14445;53.056;4.804;2022-08-03T10:02:24;25.90;99.90
26873;DHT22;14445;53.056;4.804;2022-08-03T10:04:50;26.00;99.90
26873;DHT22;14445;53.056;4.804;2022-08-03T10:07:18;26.10;99.90
26873;DHT22;14445;53.056;4.804;2022-08-03T10:09:54;26.20;99.90
26873;DHT22;14445;53.056;4.804;2022-08-03T10:12:20;26.10;99.90
26873;DHT22;14445;53.056;4.804;2022-08-03T10:14:46;26.10;99.90
26873;DHT22;14445;53.056;4.804;2022-08-03T10:17:12;26.10;99.90
26873;DHT22;14445;53.056;4.804;2022-08-03T10:19:38;26.30;99.90
26873;DHT22;14445;53.056;4.804;2022-08-03T10:22:26;26.50;99.90
26873;DHT22;14445;53.056;4.804;2022-08-03T10:24:55;26.60;99.90
26873;DHT22;14445;53.056;4.804;2022-08-03T10:27:24;26.60;99.90
26873;DHT22;14445;53.056;4.804;2022-08-03T10:29:52;26.40;99.90
26873;DHT22;14445;53.056;4.804;2022-08-03T10:32:27;26.20;99.90
26873;DHT22;14445;53.056;4.804;2022-08-03T10:35:10;26.20;99.90
26873;DHT22;14445;53.056;4.804;2022-08-03T10:37:51;26.30;99.90
26873;DHT22;14445;53.056;4.804;2022-08-03T10:40:21;26.30;99.90
26873;DHT22;14445;53.056;4.804;2022-08-03T10:42:49;26.50;99.90
26873;DHT22;14445;53.056;4.804;2022-08-03T10:45:22;26.60;99.90
26873;DHT22;14445;53.056;4.804;2022-08-03T10:47:50;26.60;99.90
26873;DHT22;14445;53.056;4.804;2022-08-03T10:50:17;26.40;99.90
26873;DHT22;14445;53.056;4.804;2022-08-03T10:52:57;26.40;99.90
26873;DHT22;14445;53.056;4.804;2022-08-03T10:55:49;26.40;99.90
26873;DHT22;14445;53.056;4.804;2022-08-03T11:01:10;26.10;99.90
26873;DHT22;14445;53.056;4.804;2022-08-03T11:06:22;26.00;99.90
26873;DHT22;14445;53.056;4.804;2022-08-03T11:11:36;25.60;99.90
26873;DHT22;14445;53.056;4.804;2022-08-03T11:16:37;25.30;99.90
26873;DHT22;14445;53.056;4.804;2022-08-03T11:19:06;25.30;99.90
26873;DHT22;14445;53.056;4.804;2022-08-03T11:30:02;24.90;99.90
26873;DHT22;14445;53.056;4.804;2022-08-03T11:35:12;24.60;99.90
26873;DHT22;14445;53.056;4.804;2022-08-03T11:42:57;24.50;99.90
26873;DHT22;14445;53.056;4.804;2022-08-03T11:45:22;24.40;99.90
26873;DHT22;14445;53.056;4.804;2022-08-03T11:47:48;24.50;99.90
26873;DHT22;14445;53.056;4.804;2022-08-03T11:50:18;24.70;99.90
26873;DHT22;14445;53.056;4.804;2022-08-03T11:52:45;24.70;99.90
26873;DHT22;14445;53.056;4.804;2022-08-03T11:55:13;24.60;99.90
26873;DHT22;14445;53.056;4.804;2022-08-03T11:57:39;24.60;99.90
26873;DHT22;14445;53.056;4.804;2022-08-03T12:00:26;24.70;99.90
26873;DHT22;14445;53.056;4.804;2022-08-03T12:03:08;24.70;99.90
26873;DHT22;14445;53.056;4.804;2022-08-03T12:05:38;24.70;99.90
26873;DHT22;14445;53.056;4.804;2022-08-03T12:08:05;24.50;99.90
26873;DHT22;14445;53.056;4.804;2022-08-03T12:10:31;24.30;99.90
26873;DHT22;14445;53.056;4.804;2022-08-03T12:12:58;24.20;99.90
26873;DHT22;14445;53.056;4.804;2022-08-03T12:15:26;24.10;99.90
26873;DHT22;14445;53.056;4.804;2022-08-03T12:17:51;24.20;99.90
26873;DHT22;14445;53.056;4.804;2022-08-03T12:20:28;24.50;99.90
26873;DHT22;14445;53.056;4.804;2022-08-03T12:23:00;24.60;99.90
26873;DHT22;14445;53.056;4.804;2022-08-03T12:25:26;24.60;99.90
26873;DHT22;14445;53.056;4.804;2022-08-03T12:27:53;24.50;99.90
26873;DHT22;14445;53.056;4.804;2022-08-03T12:30:30;24.50;99.90
26873;DHT22;14445;53.056;4.804;2022-08-03T12:32:55;24.60;99.90
26873;DHT22;14445;53.056;4.804;2022-08-03T12:35:22;24.70;99.90
26873;DHT22;14445;53.056;4.804;2022-08-03T12:37:51;24.80;99.90
26873;DHT22;14445;53.056;4.804;2022-08-03T12:40:26;24.90;99.90
26873;DHT22;14445;53.056;4.804;2022-08-03T12:42:51;25.00;99.90
26873;DHT22;14445;53.056;4.804;2022-08-03T12:45:25;25.00;99.90
26873;DHT22;14445;53.056;4.804;2022-08-03T12:47:56;24.80;99.90
26873;DHT22;14445;53.056;4.804;2022-08-03T12:50:30;24.80;99.90
26873;DHT22;14445;53.056;4.804;2022-08-03T12:52:57;24.80;99.90
26873;DHT22;14445;53.056;4.804;2022-08-03T12:55:23;24.80;99.90
26873;DHT22;14445;53.056;4.804;2022-08-03T12:57:51;24.80;99.90
26873;DHT22;14445;53.056;4.804;2022-08-03T13:00:18;24.80;99.90
26873;DHT22;14445;53.056;4.804;2022-08-03T13:02:43;24.80;99.90
26873;DHT22;14445;53.056;4.804;2022-08-03T13:05:14;24.90;99.90
26873;DHT22;14445;53.056;4.804;2022-08-03T13:07:44;24.90;99.90
26873;DHT22;14445;53.056;4.804;2022-08-03T13:10:11;24.80;99.90
26873;DHT22;14445;53.056;4.804;2022-08-03T13:12:47;24.80;99.90
26873;DHT22;14445;53.056;4.804;2022-08-03T13:15:14;24.90;99.90
26873;DHT22;14445;53.056;4.804;2022-08-03T13:17:39;25.00;99.90
26873;DHT22;14445;53.056;4.804;2022-08-03T13:20:05;25.20;99.90
26873;DHT22;14445;53.056;4.804;2022-08-03T13:22:31;25.30;99.90
26873;DHT22;14445;53.056;4.804;2022-08-03T13:25:01;25.40;99.90
26873;DHT22;14445;53.056;4.804;2022-08-03T13:27:28;25.30;99.90
26873;DHT22;14445;53.056;4.804;2022-08-03T13:29:54;25.30;99.90
26873;DHT22;14445;53.056;4.804;2022-08-03T13:32:20;25.30;99.90
26873;DHT22;14445;53.056;4.804;2022-08-03T13:34:46;25.40;99.90
26873;DHT22;14445;53.056;4.804;2022-08-03T13:37:12;25.50;99.90
26873;DHT22;14445;53.056;4.804;2022-08-03T13:39:38;25.30;99.90
26873;DHT22;14445;53.056;4.804;2022-08-03T13:42:04;25.30;99.90
26873;DHT22;14445;53.056;4.804;2022-08-03T13:44:30;25.40;99.90
26873;DHT22;14445;53.056;4.804;2022-08-03T13:46:56;25.60;99.90
26873;DHT22;14445;53.056;4.804;2022-08-03T13:49:22;25.60;99.90
26873;DHT22;14445;53.056;4.804;2022-08-03T13:51:47;25.40;99.90
26873;DHT22;14445;53.056;4.804;2022-08-03T13:54:13;25.40;99.90
26873;DHT22;14445;53.056;4.804;2022-08-03T13:56:38;25.40;99.90
26873;DHT22;14445;53.056;4.804;2022-08-03T13:59:04;25.50;99.90
26873;DHT22;14445;53.056;4.804;2022-08-03T14:01:30;25.70;99.90
26873;DHT22;14445;53.056;4.804;2022-08-03T14:03:56;25.90;99.90
26873;DHT22;14445;53.056;4.804;2022-08-03T14:06:23;26.00;99.90
26873;DHT22;14445;53.056;4.804;2022-08-03T14:08:49;26.00;99.90
26873;DHT22;14445;53.056;4.804;2022-08-03T14:11:15;26.20;99.90
26873;DHT22;14445;53.056;4.804;2022-08-03T14:13:41;26.30;99.90
26873;DHT22;14445;53.056;4.804;2022-08-03T14:16:07;26.20;99.90
26873;DHT22;14445;53.056;4.804;2022-08-03T14:18:32;26.00;99.90
26873;DHT22;14445;53.056;4.804;2022-08-03T14:20:59;25.80;99.90
26873;DHT22;14445;53.056;4.804;2022-08-03T14:23:25;25.70;99.90
26873;DHT22;14445;53.056;4.804;2022-08-03T14:25:50;25.60;99.90
26873;DHT22;14445;53.056;4.804;2022-08-03T14:28:17;25.60;99.90
26873;DHT22;14445;53.056;4.804;2022-08-03T14:30:43;25.60;99.90
26873;DHT22;14445;53.056;4.804;2022-08-03T14:33:08;25.60;99.90
26873;DHT22;14445;53.056;4.804;2022-08-03T14:35:34;25.60;99.90
26873;DHT22;14445;53.056;4.804;2022-08-03T14:37:59;25.70;99.90
26873;DHT22;14445;53.056;4.804;2022-08-03T14:40:25;25.80;99.90
26873;DHT22;14445;53.056;4.804;2022-08-03T14:42:50;25.70;99.90
26873;DHT22;14445;53.056;4.804;2022-08-03T14:45:16;25.60;99.90
26873;DHT22;14445;53.056;4.804;2022-08-03T14:47:41;25.40;99.90
26873;DHT22;14445;53.056;4.804;2022-08-03T14:50:07;25.30;99.90
26873;DHT22;14445;53.056;4.804;2022-08-03T14:52:33;25.20;99.90
26873;DHT22;14445;53.056;4.804;2022-08-03T14:54:59;25.40;99.90
26873;DHT22;14445;53.056;4.804;2022-08-03T14:57:25;25.50;99.90
26873;DHT22;14445;53.056;4.804;2022-08-03T14:59:51;25.50;99.90
26873;DHT22;14445;53.056;4.804;2022-08-03T15:02:17;25.50;99.90
26873;DHT22;14445;53.056;4.804;2022-08-03T15:04:43;25.40;99.90
26873;DHT22;14445;53.056;4.804;2022-08-03T15:07:08;25.30;99.90
26873;DHT22;14445;53.056;4.804;2022-08-03T15:09:34;25.20;99.90
26873;DHT22;14445;53.056;4.804;2022-08-03T15:12:00;25.20;99.90
26873;DHT22;14445;53.056;4.804;2022-08-03T15:14:25;25.30;99.90
26873;DHT22;14445;53.056;4.804;2022-08-03T15:16:51;25.30;99.90
26873;DHT22;14445;53.056;4.804;2022-08-03T15:19:17;25.60;99.90
26873;DHT22;14445;53.056;4.804;2022-08-03T15:21:42;25.70;99.90
26873;DHT22;14445;53.056;4.804;2022-08-03T15:24:08;25.80;99.90
26873;DHT22;14445;53.056;4.804;2022-08-03T15:26:33;25.90;99.90
26873;DHT22;14445;53.056;4.804;2022-08-03T15:28:59;26.20;99.90
26873;DHT22;14445;53.056;4.804;2022-08-03T15:31:25;26.80;99.90
26873;DHT22;14445;53.056;4.804;2022-08-03T15:33:51;27.00;99.90
26873;DHT22;14445;53.056;4.804;2022-08-03T15:36:17;27.10;99.90
26873;DHT22;14445;53.056;4.804;2022-08-03T15:38:44;27.30;99.90
26873;DHT22;14445;53.056;4.804;2022-08-03T15:41:09;27.60;99.90
26873;DHT22;14445;53.056;4.804;2022-08-03T15:43:35;28.00;99.90
26873;DHT22;14445;53.056;4.804;2022-08-03T15:46:00;28.30;99.90
26873;DHT22;14445;53.056;4.804;2022-08-03T15:48:26;28.80;99.90
26873;DHT22;14445;53.056;4.804;2022-08-03T15:50:52;30.00;99.90
26873;DHT22;14445;53.056;4.804;2022-08-03T15:53:18;31.10;99.90
26873;DHT22;14445;53.056;4.804;2022-08-03T15:55:44;32.70;99.90
26873;DHT22;14445;53.056;4.804;2022-08-03T15:58:10;33.90;97.50
26873;DHT22;14445;53.056;4.804;2022-08-03T16:00:35;35.10;93.90
26873;DHT22;14445;53.056;4.804;2022-08-03T16:03:01;35.80;90.10
26873;DHT22;14445;53.056;4.804;2022-08-03T16:05:27;35.90;83.00
26873;DHT22;14445;53.056;4.804;2022-08-03T16:07:52;35.60;79.50
26873;DHT22;14445;53.056;4.804;2022-08-03T16:10:19;37.00;77.90